PVL7677 CYYT-CYHZ
Flight info
| Callsign | PVL7677 |
|---|---|
| Flight time | 1h 43m |
| Altitude | 24000 |
| Route | YYT DCT TEXED DCT AGMIR LIRLA5 |
| Aircraft | DH8D/M-SDE2E3FGRY/H |
Departure
| Time | 2026-04-25 18:14 |
|---|---|
| Airport | St. John's International Airport (CYYT) |
Arrival
| Time | 2026-04-25 19:57 |
|---|---|
| Airport | Halifax / Stanfield International Airport (CYHZ) |
| Time | Latitude | Longitude | Altitude | Speed | Heading |
|---|---|---|---|---|---|
| 2026-04-25 17:33 | 47.61375 | -52.74256 | 446 ft | 0 kts | 204° |
| 2026-04-25 17:52 | 47.61387 | -52.74247 | 445 ft | 2 kts | 204° |
| 2026-04-25 17:52 | 47.61391 | -52.74244 | 445 ft | 2 kts | 204° |
| 2026-04-25 17:52 | 47.61414 | -52.74229 | 443 ft | 2 kts | 212° |
| 2026-04-25 17:52 | 47.61425 | -52.74213 | 443 ft | 2 kts | 236° |
| 2026-04-25 17:53 | 47.61431 | -52.74193 | 442 ft | 2 kts | 258° |
| 2026-04-25 17:53 | 47.61431 | -52.74171 | 441 ft | 2 kts | 281° |
| 2026-04-25 17:53 | 47.61429 | -52.74158 | 440 ft | 0 kts | 292° |
| 2026-04-25 17:56 | 47.61432 | -52.74186 | 441 ft | 6 kts | 279° |
| 2026-04-25 17:56 | 47.61442 | -52.74242 | 444 ft | 4 kts | 290° |
| 2026-04-25 17:57 | 47.61454 | -52.74284 | 445 ft | 4 kts | 294° |
| 2026-04-25 17:57 | 47.61464 | -52.74318 | 446 ft | 3 kts | 295° |
| 2026-04-25 17:57 | 47.61506 | -52.74356 | 446 ft | 10 kts | 17° |
| 2026-04-25 17:57 | 47.61525 | -52.74338 | 446 ft | 11 kts | 43° |
| 2026-04-25 17:58 | 47.61616 | -52.74269 | 441 ft | 7 kts | 324° |
| 2026-04-25 17:58 | 47.61677 | -52.74344 | 443 ft | 13 kts | 319° |
| 2026-04-25 17:58 | 47.61753 | -52.74441 | 445 ft | 14 kts | 318° |
| 2026-04-25 17:58 | 47.61818 | -52.74526 | 447 ft | 8 kts | 318° |
| 2026-04-25 17:59 | 47.61857 | -52.74576 | 449 ft | 0 kts | 318° |
| 2026-04-25 17:59 | 47.61877 | -52.74602 | 449 ft | 6 kts | 319° |
| 2026-04-25 17:59 | 47.61928 | -52.74667 | 451 ft | 12 kts | 318° |
| 2026-04-25 18:00 | 47.61985 | -52.74738 | 453 ft | 6 kts | 319° |
| 2026-04-25 18:00 | 47.62001 | -52.74815 | 455 ft | 9 kts | 237° |
| 2026-04-25 18:00 | 47.61960 | -52.74887 | 459 ft | 4 kts | 229° |
| 2026-04-25 18:00 | 47.61958 | -52.74890 | 459 ft | 0 kts | 229° |
| 2026-04-25 18:05 | 47.61957 | -52.74892 | 459 ft | 2 kts | 229° |
| 2026-04-25 18:06 | 47.61927 | -52.74940 | 462 ft | 8 kts | 217° |
| 2026-04-25 18:06 | 47.61863 | -52.74902 | 462 ft | 9 kts | 139° |
| 2026-04-25 18:06 | 47.61818 | -52.74839 | 460 ft | 9 kts | 116° |
| 2026-04-25 18:06 | 47.61852 | -52.74739 | 455 ft | 12 kts | 49° |
| 2026-04-25 18:07 | 47.61866 | -52.74716 | 454 ft | 0 kts | 49° |
| 2026-04-25 18:07 | 47.61872 | -52.74704 | 453 ft | 5 kts | 49° |
| 2026-04-25 18:08 | 47.61911 | -52.74662 | 451 ft | 7 kts | 357° |
| 2026-04-25 18:08 | 47.61948 | -52.74691 | 451 ft | 4 kts | 321° |
| 2026-04-25 18:08 | 47.61991 | -52.74745 | 453 ft | 7 kts | 320° |
| 2026-04-25 18:08 | 47.62048 | -52.74736 | 451 ft | 9 kts | 47° |
| 2026-04-25 18:09 | 47.62098 | -52.74650 | 447 ft | 9 kts | 48° |
| 2026-04-25 18:09 | 47.62176 | -52.74661 | 445 ft | 17 kts | 320° |
| 2026-04-25 18:09 | 47.62294 | -52.74813 | 447 ft | 26 kts | 318° |
| 2026-04-25 18:09 | 47.62339 | -52.74872 | 447 ft | 23 kts | 318° |
| 2026-04-25 18:10 | 47.62461 | -52.75108 | 450 ft | 21 kts | 267° |
| 2026-04-25 18:10 | 47.62449 | -52.75384 | 458 ft | 28 kts | 266° |
| 2026-04-25 18:10 | 47.62434 | -52.75657 | 471 ft | 21 kts | 266° |
| 2026-04-25 18:10 | 47.62423 | -52.75894 | 482 ft | 25 kts | 266° |
| 2026-04-25 18:11 | 47.62410 | -52.76173 | 493 ft | 25 kts | 262° |
| 2026-04-25 18:11 | 47.62395 | -52.76456 | 493 ft | 25 kts | 266° |
| 2026-04-25 18:11 | 47.62386 | -52.76658 | 486 ft | 13 kts | 266° |
| 2026-04-25 18:11 | 47.62378 | -52.76802 | 482 ft | 18 kts | 266° |
| 2026-04-25 18:12 | 47.62367 | -52.76967 | 476 ft | 15 kts | 249° |
| 2026-04-25 18:12 | 47.62329 | -52.77085 | 473 ft | 10 kts | 256° |
| 2026-04-25 18:12 | 47.62362 | -52.77119 | 468 ft | 8 kts | 73° |
| 2026-04-25 18:12 | 47.62369 | -52.76995 | 475 ft | 15 kts | 85° |
| 2026-04-25 18:13 | 47.62391 | -52.76559 | 490 ft | 83 kts | 84° |
| 2026-04-25 18:13 | 47.62439 | -52.75324 | 499 ft | 147 kts | 86° |
| 2026-04-25 18:13 | 47.62402 | -52.73691 | 849 ft | 167 kts | 86° |
| 2026-04-25 18:14 | 47.62185 | -52.70405 | 2208 ft | 162 kts | 86° |
| 2026-04-25 18:14 | 47.62053 | -52.68980 | 2851 ft | 157 kts | 88° |
| 2026-04-25 18:14 | 47.61885 | -52.67377 | 3290 ft | 166 kts | 88° |
| 2026-04-25 18:14 | 47.61440 | -52.65802 | 3875 ft | 183 kts | 126° |
| 2026-04-25 18:15 | 47.60177 | -52.65147 | 4244 ft | 207 kts | 187° |
| 2026-04-25 18:15 | 47.58985 | -52.66172 | 4628 ft | 199 kts | 246° |
| 2026-04-25 18:15 | 47.58690 | -52.68015 | 5033 ft | 181 kts | 283° |
| 2026-04-25 18:15 | 47.58705 | -52.69851 | 5600 ft | 180 kts | 282° |
| 2026-04-25 18:16 | 47.58701 | -52.71733 | 6078 ft | 185 kts | 282° |
| 2026-04-25 18:16 | 47.58673 | -52.73624 | 6602 ft | 187 kts | 281° |
| 2026-04-25 18:16 | 47.58601 | -52.77498 | 7647 ft | 190 kts | 281° |
| 2026-04-25 18:17 | 47.58561 | -52.79462 | 8172 ft | 191 kts | 281° |
| 2026-04-25 18:17 | 47.58520 | -52.81410 | 8681 ft | 193 kts | 281° |
| 2026-04-25 18:17 | 47.58476 | -52.83396 | 9199 ft | 194 kts | 281° |
| 2026-04-25 18:17 | 47.58432 | -52.85393 | 9677 ft | 197 kts | 281° |
| 2026-04-25 18:18 | 47.58385 | -52.87404 | 10192 ft | 198 kts | 281° |
| 2026-04-25 18:18 | 47.58345 | -52.89487 | 10449 ft | 214 kts | 280° |
| 2026-04-25 18:18 | 47.58297 | -52.91721 | 10850 ft | 222 kts | 279° |
| 2026-04-25 18:18 | 47.58238 | -52.94027 | 11344 ft | 225 kts | 279° |
| 2026-04-25 18:19 | 47.58175 | -52.96327 | 11874 ft | 226 kts | 278° |
| 2026-04-25 18:19 | 47.58115 | -52.98630 | 12341 ft | 228 kts | 278° |
| 2026-04-25 18:19 | 47.58053 | -53.00993 | 12839 ft | 230 kts | 278° |
| 2026-04-25 18:19 | 47.57993 | -53.03363 | 13323 ft | 233 kts | 278° |
| 2026-04-25 18:20 | 47.57930 | -53.05756 | 13850 ft | 234 kts | 278° |
| 2026-04-25 18:20 | 47.57869 | -53.08157 | 14318 ft | 237 kts | 277° |
| 2026-04-25 18:20 | 47.57805 | -53.10580 | 14802 ft | 238 kts | 278° |
| 2026-04-25 18:20 | 47.57742 | -53.13015 | 15246 ft | 240 kts | 278° |
| 2026-04-25 18:21 | 47.57676 | -53.15476 | 15699 ft | 241 kts | 279° |
| 2026-04-25 18:21 | 47.57609 | -53.17980 | 16091 ft | 242 kts | 277° |
| 2026-04-25 18:21 | 47.57543 | -53.20449 | 16440 ft | 244 kts | 277° |
| 2026-04-25 18:21 | 47.57477 | -53.22986 | 16722 ft | 250 kts | 277° |
| 2026-04-25 18:22 | 47.57404 | -53.25538 | 17200 ft | 247 kts | 277° |
| 2026-04-25 18:22 | 47.57382 | -53.26369 | 17285 ft | 249 kts | 277° |
| 2026-04-25 18:22 | 47.57265 | -53.30656 | 17900 ft | 249 kts | 277° |
| 2026-04-25 18:22 | 47.57194 | -53.33208 | 18220 ft | 252 kts | 277° |
| 2026-04-25 18:23 | 47.57124 | -53.35811 | 18511 ft | 256 kts | 277° |
| 2026-04-25 18:23 | 47.57046 | -53.38438 | 18909 ft | 254 kts | 277° |
| 2026-04-25 18:23 | 47.56970 | -53.41054 | 19226 ft | 255 kts | 277° |
| 2026-04-25 18:23 | 47.56895 | -53.43676 | 19571 ft | 255 kts | 277° |
| 2026-04-25 18:24 | 47.56820 | -53.46298 | 19901 ft | 255 kts | 277° |
| 2026-04-25 18:24 | 47.56742 | -53.48922 | 20202 ft | 257 kts | 277° |
| 2026-04-25 18:24 | 47.56664 | -53.51545 | 20519 ft | 257 kts | 277° |
| 2026-04-25 18:24 | 47.56588 | -53.54156 | 20809 ft | 257 kts | 277° |
| 2026-04-25 18:25 | 47.56508 | -53.56824 | 21081 ft | 259 kts | 277° |
| 2026-04-25 18:25 | 47.56428 | -53.59461 | 21382 ft | 258 kts | 277° |
| 2026-04-25 18:25 | 47.56348 | -53.62111 | 21655 ft | 258 kts | 277° |
| 2026-04-25 18:25 | 47.56267 | -53.64752 | 21892 ft | 259 kts | 277° |
| 2026-04-25 18:26 | 47.56190 | -53.67424 | 22306 ft | 262 kts | 276° |
| 2026-04-25 18:26 | 47.56109 | -53.70093 | 22908 ft | 257 kts | 276° |
| 2026-04-25 18:26 | 47.56027 | -53.72718 | 23057 ft | 260 kts | 276° |
| 2026-04-25 18:26 | 47.55941 | -53.75418 | 23245 ft | 261 kts | 276° |
| 2026-04-25 18:27 | 47.55857 | -53.78107 | 23340 ft | 267 kts | 276° |
| 2026-04-25 18:27 | 47.55772 | -53.80885 | 23374 ft | 275 kts | 275° |
| 2026-04-25 18:27 | 47.55682 | -53.83754 | 23388 ft | 283 kts | 275° |
| 2026-04-25 18:27 | 47.55589 | -53.86663 | 23395 ft | 291 kts | 275° |
| 2026-04-25 18:28 | 47.55491 | -53.89694 | 23399 ft | 299 kts | 274° |
| 2026-04-25 18:28 | 47.55389 | -53.92789 | 23405 ft | 306 kts | 274° |
| 2026-04-25 18:28 | 47.55283 | -53.95946 | 23400 ft | 307 kts | 274° |
| 2026-04-25 18:29 | 47.55062 | -54.02235 | 23414 ft | 306 kts | 274° |
| 2026-04-25 18:29 | 47.54952 | -54.05388 | 23415 ft | 306 kts | 274° |
| 2026-04-25 18:30 | 47.54594 | -54.14789 | 23416 ft | 309 kts | 269° |
| 2026-04-25 18:30 | 47.54023 | -54.17873 | 23426 ft | 316 kts | 256° |
| 2026-04-25 18:30 | 47.53244 | -54.20935 | 23421 ft | 318 kts | 256° |
| 2026-04-25 18:30 | 47.52458 | -54.23993 | 23414 ft | 319 kts | 255° |
| 2026-04-25 18:31 | 47.51674 | -54.27047 | 23415 ft | 319 kts | 255° |
| 2026-04-25 18:31 | 47.50892 | -54.30101 | 23414 ft | 320 kts | 256° |
| 2026-04-25 18:31 | 47.50109 | -54.33161 | 23417 ft | 320 kts | 256° |
| 2026-04-25 18:31 | 47.49326 | -54.36231 | 23415 ft | 321 kts | 256° |
| 2026-04-25 18:32 | 47.48533 | -54.39336 | 23418 ft | 321 kts | 256° |
| 2026-04-25 18:32 | 47.47753 | -54.42391 | 23421 ft | 321 kts | 256° |
| 2026-04-25 18:32 | 47.46962 | -54.45488 | 23420 ft | 321 kts | 256° |
| 2026-04-25 18:32 | 47.46178 | -54.48554 | 23427 ft | 321 kts | 256° |
| 2026-04-25 18:33 | 47.45388 | -54.51644 | 23428 ft | 322 kts | 256° |
| 2026-04-25 18:33 | 47.44596 | -54.54737 | 23431 ft | 322 kts | 256° |
| 2026-04-25 18:33 | 47.43806 | -54.57820 | 23426 ft | 322 kts | 256° |
| 2026-04-25 18:33 | 47.43019 | -54.60886 | 23427 ft | 322 kts | 256° |
| 2026-04-25 18:34 | 47.42225 | -54.63980 | 23431 ft | 322 kts | 256° |
| 2026-04-25 18:34 | 47.41429 | -54.67075 | 23435 ft | 322 kts | 255° |
| 2026-04-25 18:34 | 47.40638 | -54.70146 | 23435 ft | 322 kts | 255° |
| 2026-04-25 18:34 | 47.39844 | -54.73224 | 23440 ft | 322 kts | 255° |
| 2026-04-25 18:35 | 47.39050 | -54.76301 | 23441 ft | 322 kts | 255° |
| 2026-04-25 18:35 | 47.38252 | -54.79385 | 23447 ft | 323 kts | 255° |
| 2026-04-25 18:35 | 47.37450 | -54.82485 | 23447 ft | 323 kts | 255° |
| 2026-04-25 18:35 | 47.36649 | -54.85578 | 23446 ft | 322 kts | 255° |
| 2026-04-25 18:36 | 47.35850 | -54.88654 | 23443 ft | 322 kts | 255° |
| 2026-04-25 18:36 | 47.35058 | -54.91701 | 23451 ft | 322 kts | 255° |
| 2026-04-25 18:36 | 47.34252 | -54.94799 | 23446 ft | 322 kts | 255° |
| 2026-04-25 18:36 | 47.33451 | -54.97872 | 23455 ft | 321 kts | 255° |
| 2026-04-25 18:37 | 47.32661 | -55.00902 | 23455 ft | 321 kts | 255° |
| 2026-04-25 18:37 | 47.31853 | -55.03994 | 23460 ft | 321 kts | 255° |
| 2026-04-25 18:37 | 47.31051 | -55.07059 | 23454 ft | 321 kts | 255° |
| 2026-04-25 18:37 | 47.30254 | -55.10099 | 23466 ft | 320 kts | 255° |
| 2026-04-25 18:38 | 47.29451 | -55.13163 | 23470 ft | 320 kts | 255° |
| 2026-04-25 18:38 | 47.28655 | -55.16193 | 23466 ft | 320 kts | 255° |
| 2026-04-25 18:38 | 47.27850 | -55.19256 | 23469 ft | 320 kts | 255° |
| 2026-04-25 18:38 | 47.27044 | -55.22317 | 23471 ft | 320 kts | 255° |
| 2026-04-25 18:39 | 47.26246 | -55.25344 | 23467 ft | 320 kts | 255° |
| 2026-04-25 18:39 | 47.25434 | -55.28419 | 23468 ft | 320 kts | 255° |
| 2026-04-25 18:39 | 47.24631 | -55.31457 | 23458 ft | 320 kts | 255° |
| 2026-04-25 18:39 | 47.23826 | -55.34497 | 23460 ft | 320 kts | 255° |
| 2026-04-25 18:40 | 47.23016 | -55.37553 | 23472 ft | 320 kts | 255° |
| 2026-04-25 18:40 | 47.22208 | -55.40597 | 23476 ft | 320 kts | 255° |
| 2026-04-25 18:40 | 47.21403 | -55.43628 | 23472 ft | 321 kts | 255° |
| 2026-04-25 18:40 | 47.20596 | -55.46663 | 23480 ft | 320 kts | 255° |
| 2026-04-25 18:41 | 47.19781 | -55.49718 | 23483 ft | 320 kts | 255° |
| 2026-04-25 18:41 | 47.18972 | -55.52750 | 23486 ft | 320 kts | 255° |
| 2026-04-25 18:41 | 47.18162 | -55.55783 | 23494 ft | 320 kts | 255° |
| 2026-04-25 18:41 | 47.17341 | -55.58854 | 23485 ft | 321 kts | 255° |
| 2026-04-25 18:42 | 47.16533 | -55.61872 | 23490 ft | 320 kts | 255° |
| 2026-04-25 18:42 | 47.16256 | -55.62902 | 23491 ft | 321 kts | 255° |
| 2026-04-25 18:42 | 47.14901 | -55.67952 | 23491 ft | 321 kts | 254° |
| 2026-04-25 18:42 | 47.14085 | -55.70988 | 23498 ft | 321 kts | 253° |
| 2026-04-25 18:43 | 47.13260 | -55.74054 | 23506 ft | 321 kts | 253° |
| 2026-04-25 18:43 | 47.12450 | -55.77058 | 23504 ft | 321 kts | 254° |
| 2026-04-25 18:43 | 47.11622 | -55.80125 | 23508 ft | 321 kts | 253° |
| 2026-04-25 18:43 | 47.10811 | -55.83124 | 23508 ft | 321 kts | 253° |
| 2026-04-25 18:44 | 47.09980 | -55.86195 | 23506 ft | 321 kts | 253° |
| 2026-04-25 18:44 | 47.09166 | -55.89203 | 23509 ft | 321 kts | 253° |
| 2026-04-25 18:44 | 47.08338 | -55.92251 | 23504 ft | 321 kts | 253° |
| 2026-04-25 18:44 | 47.07515 | -55.95284 | 23512 ft | 321 kts | 253° |
| 2026-04-25 18:45 | 47.06688 | -55.98320 | 23510 ft | 321 kts | 253° |
| 2026-04-25 18:45 | 47.05857 | -56.01373 | 23510 ft | 321 kts | 253° |
| 2026-04-25 18:45 | 47.05040 | -56.04369 | 23513 ft | 321 kts | 253° |
| 2026-04-25 18:45 | 47.04204 | -56.07431 | 23511 ft | 321 kts | 253° |
| 2026-04-25 18:46 | 47.03380 | -56.10446 | 23513 ft | 321 kts | 253° |
| 2026-04-25 18:46 | 47.02554 | -56.13462 | 23517 ft | 321 kts | 253° |
| 2026-04-25 18:46 | 47.01718 | -56.16513 | 23522 ft | 321 kts | 253° |
| 2026-04-25 18:46 | 47.00893 | -56.19518 | 23521 ft | 321 kts | 253° |
| 2026-04-25 18:47 | 47.00051 | -56.22584 | 23525 ft | 321 kts | 253° |
| 2026-04-25 18:47 | 46.99229 | -56.25571 | 23524 ft | 322 kts | 253° |
| 2026-04-25 18:47 | 46.98393 | -56.28605 | 23523 ft | 322 kts | 253° |
| 2026-04-25 18:47 | 46.97557 | -56.31636 | 23528 ft | 322 kts | 253° |
| 2026-04-25 18:48 | 46.96719 | -56.34671 | 23529 ft | 322 kts | 253° |
| 2026-04-25 18:48 | 46.95882 | -56.37695 | 23531 ft | 322 kts | 253° |
| 2026-04-25 18:48 | 46.95039 | -56.40743 | 23537 ft | 322 kts | 253° |
| 2026-04-25 18:48 | 46.94205 | -56.43750 | 23540 ft | 322 kts | 253° |
| 2026-04-25 18:49 | 46.93366 | -56.46774 | 23548 ft | 322 kts | 253° |
| 2026-04-25 18:49 | 46.92517 | -56.49828 | 23548 ft | 322 kts | 253° |
| 2026-04-25 18:49 | 46.91685 | -56.52818 | 23547 ft | 322 kts | 253° |
| 2026-04-25 18:49 | 46.90834 | -56.55872 | 23544 ft | 323 kts | 253° |
| 2026-04-25 18:50 | 46.89986 | -56.58910 | 23542 ft | 323 kts | 253° |
| 2026-04-25 18:50 | 46.89149 | -56.61907 | 23549 ft | 322 kts | 253° |
| 2026-04-25 18:50 | 46.88304 | -56.64927 | 23549 ft | 321 kts | 253° |
| 2026-04-25 18:50 | 46.87453 | -56.67965 | 23550 ft | 321 kts | 252° |
| 2026-04-25 18:51 | 46.86621 | -56.70933 | 23558 ft | 320 kts | 252° |
| 2026-04-25 18:51 | 46.86050 | -56.72969 | 23553 ft | 320 kts | 252° |
| 2026-04-25 18:51 | 46.84935 | -56.76936 | 23562 ft | 320 kts | 252° |
| 2026-04-25 18:51 | 46.84090 | -56.79939 | 23560 ft | 320 kts | 252° |
| 2026-04-25 18:52 | 46.83237 | -56.82965 | 23569 ft | 320 kts | 252° |
| 2026-04-25 18:52 | 46.82400 | -56.85931 | 23563 ft | 320 kts | 252° |
| 2026-04-25 18:52 | 46.81557 | -56.88916 | 23566 ft | 319 kts | 252° |
| 2026-04-25 18:52 | 46.80709 | -56.91913 | 23566 ft | 319 kts | 252° |
| 2026-04-25 18:53 | 46.79860 | -56.94912 | 23573 ft | 319 kts | 252° |
| 2026-04-25 18:53 | 46.79023 | -56.97866 | 23568 ft | 319 kts | 252° |
| 2026-04-25 18:53 | 46.78171 | -57.00866 | 23564 ft | 319 kts | 252° |
| 2026-04-25 18:53 | 46.77325 | -57.03844 | 23559 ft | 319 kts | 253° |
| 2026-04-25 18:54 | 46.75624 | -57.09817 | 23555 ft | 319 kts | 252° |
| 2026-04-25 18:54 | 46.74771 | -57.12805 | 23555 ft | 319 kts | 253° |
| 2026-04-25 18:54 | 46.73921 | -57.15782 | 23561 ft | 319 kts | 253° |
| 2026-04-25 18:55 | 46.73078 | -57.18730 | 23563 ft | 319 kts | 253° |
| 2026-04-25 18:55 | 46.72222 | -57.21719 | 23569 ft | 319 kts | 252° |
| 2026-04-25 18:55 | 46.71370 | -57.24691 | 23573 ft | 318 kts | 253° |
| 2026-04-25 18:55 | 46.70520 | -57.27652 | 23572 ft | 319 kts | 253° |
| 2026-04-25 18:56 | 46.69669 | -57.30616 | 23581 ft | 318 kts | 253° |
| 2026-04-25 18:56 | 46.68819 | -57.33567 | 23581 ft | 318 kts | 253° |
| 2026-04-25 18:56 | 46.67968 | -57.36520 | 23589 ft | 318 kts | 253° |
| 2026-04-25 18:56 | 46.67115 | -57.39479 | 23586 ft | 317 kts | 253° |
| 2026-04-25 18:57 | 46.66263 | -57.42430 | 23593 ft | 317 kts | 253° |
| 2026-04-25 18:57 | 46.65403 | -57.45403 | 23590 ft | 317 kts | 253° |
| 2026-04-25 18:57 | 46.64555 | -57.48335 | 23590 ft | 317 kts | 253° |
| 2026-04-25 18:57 | 46.64267 | -57.49329 | 23591 ft | 317 kts | 253° |
| 2026-04-25 18:58 | 46.62840 | -57.54247 | 23594 ft | 317 kts | 253° |
| 2026-04-25 18:58 | 46.61130 | -57.60131 | 23592 ft | 317 kts | 253° |
| 2026-04-25 18:58 | 46.60273 | -57.63073 | 23589 ft | 317 kts | 253° |
| 2026-04-25 18:59 | 46.58563 | -57.68938 | 23598 ft | 317 kts | 252° |
| 2026-04-25 18:59 | 46.56847 | -57.74805 | 23607 ft | 317 kts | 252° |
| 2026-04-25 19:00 | 46.55118 | -57.80704 | 23609 ft | 317 kts | 253° |
| 2026-04-25 19:00 | 46.54261 | -57.83623 | 23609 ft | 317 kts | 253° |
| 2026-04-25 19:01 | 46.52540 | -57.89471 | 23613 ft | 316 kts | 253° |
| 2026-04-25 19:01 | 46.51678 | -57.92397 | 23613 ft | 316 kts | 253° |
| 2026-04-25 19:01 | 46.50809 | -57.95339 | 23608 ft | 316 kts | 253° |
| 2026-04-25 19:01 | 46.49942 | -57.98277 | 23606 ft | 316 kts | 253° |
| 2026-04-25 19:02 | 46.48214 | -58.04116 | 23611 ft | 316 kts | 253° |
| 2026-04-25 19:02 | 46.47353 | -58.07020 | 23618 ft | 315 kts | 253° |
| 2026-04-25 19:02 | 46.46485 | -58.09945 | 23621 ft | 315 kts | 253° |
| 2026-04-25 19:03 | 46.45340 | -58.13797 | 23624 ft | 315 kts | 253° |
| 2026-04-25 19:03 | 46.43894 | -58.18655 | 23627 ft | 315 kts | 253° |
| 2026-04-25 19:03 | 46.43030 | -58.21552 | 23623 ft | 314 kts | 253° |
| 2026-04-25 19:04 | 46.41305 | -58.27325 | 23630 ft | 313 kts | 253° |
| 2026-04-25 19:04 | 46.40432 | -58.30246 | 23629 ft | 314 kts | 253° |
| 2026-04-25 19:05 | 46.38708 | -58.35995 | 23638 ft | 313 kts | 253° |
| 2026-04-25 19:05 | 46.36967 | -58.41792 | 23636 ft | 313 kts | 253° |
| 2026-04-25 19:05 | 46.36098 | -58.44678 | 23639 ft | 313 kts | 253° |
| 2026-04-25 19:06 | 46.35235 | -58.47542 | 23635 ft | 313 kts | 253° |
| 2026-04-25 19:06 | 46.33494 | -58.53311 | 23636 ft | 313 kts | 253° |
| 2026-04-25 19:06 | 46.32627 | -58.56178 | 23638 ft | 313 kts | 253° |
| 2026-04-25 19:07 | 46.30883 | -58.61935 | 23638 ft | 312 kts | 253° |
| 2026-04-25 19:07 | 46.30018 | -58.64787 | 23634 ft | 312 kts | 253° |
| 2026-04-25 19:08 | 46.28270 | -58.70539 | 23645 ft | 312 kts | 253° |
| 2026-04-25 19:08 | 46.27406 | -58.73379 | 23649 ft | 312 kts | 253° |
| 2026-04-25 19:09 | 46.24783 | -58.81977 | 23648 ft | 312 kts | 253° |
| 2026-04-25 19:09 | 46.24202 | -58.83878 | 23649 ft | 312 kts | 253° |
| 2026-04-25 19:09 | 46.22166 | -58.90522 | 23648 ft | 312 kts | 253° |
| 2026-04-25 19:10 | 46.21281 | -58.93407 | 23651 ft | 312 kts | 253° |
| 2026-04-25 19:10 | 46.20411 | -58.96239 | 23648 ft | 311 kts | 253° |
| 2026-04-25 19:10 | 46.19529 | -58.99107 | 23653 ft | 311 kts | 253° |
| 2026-04-25 19:10 | 46.18657 | -59.01940 | 23654 ft | 311 kts | 253° |
| 2026-04-25 19:11 | 46.17783 | -59.04775 | 23663 ft | 311 kts | 253° |
| 2026-04-25 19:11 | 46.16908 | -59.07610 | 23663 ft | 311 kts | 253° |
| 2026-04-25 19:11 | 46.16036 | -59.10434 | 23665 ft | 310 kts | 253° |
| 2026-04-25 19:11 | 46.15152 | -59.13291 | 23672 ft | 310 kts | 253° |
| 2026-04-25 19:12 | 46.14284 | -59.16093 | 23682 ft | 309 kts | 253° |
| 2026-04-25 19:12 | 46.13406 | -59.18927 | 23682 ft | 309 kts | 253° |
| 2026-04-25 19:12 | 46.12526 | -59.21763 | 23686 ft | 309 kts | 253° |
| 2026-04-25 19:12 | 46.11659 | -59.24554 | 23684 ft | 309 kts | 253° |
| 2026-04-25 19:13 | 46.10775 | -59.27396 | 23688 ft | 309 kts | 253° |
| 2026-04-25 19:13 | 46.09909 | -59.30178 | 23687 ft | 308 kts | 253° |
| 2026-04-25 19:13 | 46.09029 | -59.33003 | 23691 ft | 308 kts | 253° |
| 2026-04-25 19:13 | 46.08149 | -59.35822 | 23692 ft | 309 kts | 253° |
| 2026-04-25 19:14 | 46.07278 | -59.38609 | 23697 ft | 308 kts | 253° |
| 2026-04-25 19:14 | 46.06978 | -59.39571 | 23699 ft | 308 kts | 253° |
| 2026-04-25 19:14 | 46.05519 | -59.44232 | 23699 ft | 308 kts | 253° |
| 2026-04-25 19:14 | 46.04641 | -59.47034 | 23697 ft | 308 kts | 253° |
| 2026-04-25 19:15 | 46.03763 | -59.49834 | 23703 ft | 308 kts | 253° |
| 2026-04-25 19:15 | 46.02880 | -59.52642 | 23705 ft | 308 kts | 253° |
| 2026-04-25 19:15 | 46.02004 | -59.55430 | 23705 ft | 307 kts | 253° |
| 2026-04-25 19:15 | 46.01124 | -59.58226 | 23703 ft | 307 kts | 253° |
| 2026-04-25 19:16 | 46.00246 | -59.61012 | 23711 ft | 307 kts | 253° |
| 2026-04-25 19:16 | 45.99372 | -59.63780 | 23712 ft | 306 kts | 253° |
| 2026-04-25 19:16 | 45.98492 | -59.66569 | 23710 ft | 307 kts | 252° |
| 2026-04-25 19:16 | 45.97602 | -59.69384 | 23714 ft | 307 kts | 252° |
| 2026-04-25 19:17 | 45.96726 | -59.72153 | 23713 ft | 307 kts | 252° |
| 2026-04-25 19:17 | 45.95841 | -59.74947 | 23724 ft | 307 kts | 252° |
| 2026-04-25 19:17 | 45.94958 | -59.77730 | 23719 ft | 307 kts | 252° |
| 2026-04-25 19:17 | 45.94079 | -59.80499 | 23714 ft | 307 kts | 253° |
| 2026-04-25 19:18 | 45.93197 | -59.83273 | 23711 ft | 308 kts | 253° |
| 2026-04-25 19:18 | 45.92306 | -59.86076 | 23718 ft | 308 kts | 252° |
| 2026-04-25 19:18 | 45.91413 | -59.88879 | 23719 ft | 308 kts | 252° |
| 2026-04-25 19:18 | 45.90531 | -59.91643 | 23716 ft | 308 kts | 252° |
| 2026-04-25 19:19 | 45.89645 | -59.94420 | 23712 ft | 308 kts | 252° |
| 2026-04-25 19:19 | 45.88749 | -59.97223 | 23718 ft | 307 kts | 252° |
| 2026-04-25 19:19 | 45.87866 | -59.99980 | 23720 ft | 307 kts | 252° |
| 2026-04-25 19:19 | 45.87271 | -60.01836 | 23716 ft | 306 kts | 253° |
| 2026-04-25 19:20 | 45.86092 | -60.05516 | 23728 ft | 306 kts | 252° |
| 2026-04-25 19:20 | 45.85202 | -60.08289 | 23725 ft | 306 kts | 252° |
| 2026-04-25 19:20 | 45.84311 | -60.11063 | 23723 ft | 306 kts | 252° |
| 2026-04-25 19:20 | 45.83419 | -60.13834 | 23722 ft | 305 kts | 253° |
| 2026-04-25 19:21 | 45.82542 | -60.16560 | 23718 ft | 305 kts | 252° |
| 2026-04-25 19:21 | 45.80765 | -60.22068 | 23723 ft | 305 kts | 253° |
| 2026-04-25 19:21 | 45.79867 | -60.24849 | 23724 ft | 305 kts | 253° |
| 2026-04-25 19:22 | 45.78980 | -60.27590 | 23730 ft | 305 kts | 253° |
| 2026-04-25 19:22 | 45.78089 | -60.30344 | 23725 ft | 305 kts | 253° |
| 2026-04-25 19:22 | 45.76308 | -60.35836 | 23732 ft | 305 kts | 253° |
| 2026-04-25 19:23 | 45.75426 | -60.38552 | 23733 ft | 305 kts | 253° |
| 2026-04-25 19:23 | 45.73637 | -60.44056 | 23734 ft | 305 kts | 253° |
| 2026-04-25 19:23 | 45.72744 | -60.46795 | 23738 ft | 305 kts | 253° |
| 2026-04-25 19:24 | 45.71850 | -60.49537 | 23744 ft | 304 kts | 253° |
| 2026-04-25 19:24 | 45.70958 | -60.52268 | 23743 ft | 304 kts | 253° |
| 2026-04-25 19:24 | 45.69162 | -60.57761 | 23753 ft | 305 kts | 253° |
| 2026-04-25 19:25 | 45.67372 | -60.63223 | 23754 ft | 305 kts | 253° |
| 2026-04-25 19:25 | 45.66477 | -60.65953 | 23757 ft | 305 kts | 252° |
| 2026-04-25 19:25 | 45.65580 | -60.68682 | 23766 ft | 305 kts | 252° |
| 2026-04-25 19:26 | 45.64670 | -60.71452 | 23766 ft | 305 kts | 252° |
| 2026-04-25 19:26 | 45.63775 | -60.74169 | 23768 ft | 306 kts | 252° |
| 2026-04-25 19:26 | 45.62871 | -60.76914 | 23767 ft | 306 kts | 252° |
| 2026-04-25 19:26 | 45.61964 | -60.79663 | 23770 ft | 306 kts | 252° |
| 2026-04-25 19:27 | 45.61057 | -60.82408 | 23778 ft | 306 kts | 252° |
| 2026-04-25 19:27 | 45.60449 | -60.84249 | 23768 ft | 307 kts | 252° |
| 2026-04-25 19:27 | 45.59240 | -60.87902 | 23763 ft | 307 kts | 252° |
| 2026-04-25 19:27 | 45.58326 | -60.90660 | 23767 ft | 307 kts | 252° |
| 2026-04-25 19:28 | 45.57412 | -60.93417 | 23772 ft | 308 kts | 252° |
| 2026-04-25 19:28 | 45.56498 | -60.96170 | 23769 ft | 308 kts | 252° |
| 2026-04-25 19:28 | 45.55584 | -60.98922 | 23770 ft | 308 kts | 252° |
| 2026-04-25 19:28 | 45.54662 | -61.01692 | 23772 ft | 308 kts | 252° |
| 2026-04-25 19:29 | 45.53749 | -61.04432 | 23771 ft | 308 kts | 252° |
| 2026-04-25 19:29 | 45.52829 | -61.07191 | 23770 ft | 308 kts | 252° |
| 2026-04-25 19:29 | 45.51917 | -61.09924 | 23777 ft | 308 kts | 252° |
| 2026-04-25 19:29 | 45.50990 | -61.12700 | 23777 ft | 308 kts | 252° |
| 2026-04-25 19:30 | 45.50077 | -61.15428 | 23778 ft | 309 kts | 252° |
| 2026-04-25 19:30 | 45.49151 | -61.18195 | 23777 ft | 309 kts | 252° |
| 2026-04-25 19:30 | 45.48222 | -61.20966 | 23784 ft | 309 kts | 252° |
| 2026-04-25 19:30 | 45.47298 | -61.23721 | 23786 ft | 309 kts | 252° |
| 2026-04-25 19:31 | 45.46376 | -61.26466 | 23787 ft | 309 kts | 252° |
| 2026-04-25 19:31 | 45.45451 | -61.29216 | 23792 ft | 309 kts | 252° |
| 2026-04-25 19:31 | 45.44520 | -61.31984 | 23794 ft | 309 kts | 252° |
| 2026-04-25 19:31 | 45.43605 | -61.34701 | 23788 ft | 309 kts | 252° |
| 2026-04-25 19:32 | 45.42672 | -61.37469 | 23794 ft | 309 kts | 252° |
| 2026-04-25 19:32 | 45.41739 | -61.40229 | 23804 ft | 309 kts | 252° |
| 2026-04-25 19:32 | 45.40808 | -61.42985 | 23799 ft | 309 kts | 252° |
| 2026-04-25 19:32 | 45.40188 | -61.44820 | 23802 ft | 309 kts | 252° |
| 2026-04-25 19:33 | 45.38947 | -61.48486 | 23803 ft | 309 kts | 252° |
| 2026-04-25 19:33 | 45.38013 | -61.51239 | 23805 ft | 309 kts | 252° |
| 2026-04-25 19:33 | 45.37082 | -61.53983 | 23797 ft | 309 kts | 252° |
| 2026-04-25 19:33 | 45.36159 | -61.56699 | 23797 ft | 309 kts | 252° |
| 2026-04-25 19:34 | 45.35215 | -61.59477 | 23802 ft | 309 kts | 252° |
| 2026-04-25 19:34 | 45.34284 | -61.62212 | 23798 ft | 309 kts | 252° |
| 2026-04-25 19:34 | 45.33353 | -61.64943 | 23807 ft | 309 kts | 252° |
| 2026-04-25 19:34 | 45.32412 | -61.67701 | 23814 ft | 309 kts | 251° |
| 2026-04-25 19:35 | 45.31477 | -61.70439 | 23817 ft | 310 kts | 251° |
| 2026-04-25 19:35 | 45.30534 | -61.73198 | 23823 ft | 310 kts | 251° |
| 2026-04-25 19:35 | 45.29591 | -61.75956 | 23695 ft | 311 kts | 251° |
| 2026-04-25 19:35 | 45.28653 | -61.78677 | 23383 ft | 304 kts | 251° |
| 2026-04-25 19:36 | 45.27737 | -61.81338 | 23043 ft | 304 kts | 251° |
| 2026-04-25 19:36 | 45.26808 | -61.84046 | 22681 ft | 305 kts | 251° |
| 2026-04-25 19:36 | 45.25872 | -61.86773 | 22312 ft | 307 kts | 251° |
| 2026-04-25 19:36 | 45.24938 | -61.89491 | 21938 ft | 309 kts | 251° |
| 2026-04-25 19:37 | 45.24000 | -61.92218 | 21561 ft | 310 kts | 251° |
| 2026-04-25 19:37 | 45.23057 | -61.94973 | 21184 ft | 310 kts | 251° |
| 2026-04-25 19:37 | 45.22288 | -61.97805 | 20817 ft | 307 kts | 258° |
| 2026-04-25 19:37 | 45.21630 | -62.00663 | 20451 ft | 307 kts | 258° |
| 2026-04-25 19:38 | 45.20980 | -62.03505 | 20084 ft | 307 kts | 258° |
| 2026-04-25 19:38 | 45.20316 | -62.06396 | 19716 ft | 308 kts | 258° |
| 2026-04-25 19:38 | 45.19658 | -62.09251 | 19343 ft | 307 kts | 258° |
| 2026-04-25 19:38 | 45.18992 | -62.12118 | 18974 ft | 306 kts | 258° |
| 2026-04-25 19:39 | 45.18326 | -62.14985 | 18604 ft | 306 kts | 258° |
| 2026-04-25 19:39 | 45.17662 | -62.17836 | 18236 ft | 305 kts | 258° |
| 2026-04-25 19:39 | 45.16999 | -62.20678 | 17866 ft | 304 kts | 258° |
| 2026-04-25 19:39 | 45.16334 | -62.23523 | 17496 ft | 303 kts | 258° |
| 2026-04-25 19:40 | 45.15679 | -62.26324 | 17135 ft | 303 kts | 258° |
| 2026-04-25 19:40 | 45.15021 | -62.29134 | 16767 ft | 302 kts | 257° |
| 2026-04-25 19:40 | 45.14356 | -62.31966 | 16431 ft | 300 kts | 257° |
| 2026-04-25 19:40 | 45.13699 | -62.34758 | 16092 ft | 299 kts | 257° |
| 2026-04-25 19:41 | 45.13050 | -62.37517 | 15736 ft | 299 kts | 257° |
| 2026-04-25 19:41 | 45.12392 | -62.40301 | 15366 ft | 294 kts | 257° |
| 2026-04-25 19:41 | 45.11752 | -62.42995 | 15011 ft | 288 kts | 257° |
| 2026-04-25 19:41 | 45.11543 | -62.43877 | 14894 ft | 286 kts | 257° |
| 2026-04-25 19:42 | 45.10506 | -62.48244 | 14338 ft | 277 kts | 258° |
| 2026-04-25 19:42 | 45.09901 | -62.50795 | 14004 ft | 273 kts | 258° |
| 2026-04-25 19:42 | 45.09299 | -62.53330 | 13672 ft | 269 kts | 258° |
| 2026-04-25 19:42 | 45.08709 | -62.55812 | 13353 ft | 265 kts | 258° |
| 2026-04-25 19:43 | 45.08127 | -62.58260 | 13036 ft | 262 kts | 258° |
| 2026-04-25 19:43 | 45.07547 | -62.60698 | 12716 ft | 258 kts | 258° |
| 2026-04-25 19:43 | 45.06986 | -62.63051 | 12408 ft | 255 kts | 258° |
| 2026-04-25 19:43 | 45.06419 | -62.65427 | 12095 ft | 252 kts | 258° |
| 2026-04-25 19:44 | 45.05870 | -62.67754 | 11805 ft | 255 kts | 258° |
| 2026-04-25 19:44 | 45.05300 | -62.70168 | 11488 ft | 259 kts | 258° |
| 2026-04-25 19:44 | 45.04730 | -62.72569 | 11174 ft | 261 kts | 258° |
| 2026-04-25 19:44 | 45.04152 | -62.74991 | 10859 ft | 262 kts | 258° |
| 2026-04-25 19:45 | 45.03563 | -62.77452 | 10539 ft | 263 kts | 258° |
| 2026-04-25 19:45 | 45.02981 | -62.79878 | 10220 ft | 263 kts | 258° |
| 2026-04-25 19:45 | 45.02395 | -62.82319 | 9905 ft | 264 kts | 258° |
| 2026-04-25 19:45 | 45.01737 | -62.84737 | 9587 ft | 267 kts | 253° |
| 2026-04-25 19:46 | 45.00954 | -62.87153 | 9259 ft | 268 kts | 252° |
| 2026-04-25 19:46 | 45.00185 | -62.89472 | 8939 ft | 260 kts | 251° |
| 2026-04-25 19:46 | 44.99430 | -62.91736 | 8628 ft | 251 kts | 252° |
| 2026-04-25 19:46 | 44.98706 | -62.93912 | 8331 ft | 241 kts | 253° |
| 2026-04-25 19:47 | 44.97999 | -62.96061 | 8045 ft | 238 kts | 253° |
| 2026-04-25 19:47 | 44.97311 | -62.98161 | 7765 ft | 236 kts | 253° |
| 2026-04-25 19:47 | 44.96626 | -63.00251 | 7480 ft | 234 kts | 253° |
| 2026-04-25 19:47 | 44.95954 | -63.02299 | 7203 ft | 232 kts | 253° |
| 2026-04-25 19:48 | 44.95276 | -63.04364 | 6925 ft | 229 kts | 254° |
| 2026-04-25 19:48 | 44.94612 | -63.06381 | 6649 ft | 226 kts | 254° |
| 2026-04-25 19:48 | 44.93951 | -63.08365 | 6364 ft | 217 kts | 255° |
| 2026-04-25 19:48 | 44.93327 | -63.10266 | 6113 ft | 215 kts | 255° |
| 2026-04-25 19:49 | 44.92697 | -63.12193 | 5851 ft | 214 kts | 255° |
| 2026-04-25 19:49 | 44.92491 | -63.12825 | 5768 ft | 213 kts | 255° |
| 2026-04-25 19:49 | 44.91461 | -63.15958 | 5340 ft | 210 kts | 255° |
| 2026-04-25 19:49 | 44.90844 | -63.17821 | 5095 ft | 210 kts | 253° |
| 2026-04-25 19:50 | 44.88658 | -63.20577 | 4666 ft | 215 kts | 218° |
| 2026-04-25 19:50 | 44.87398 | -63.21681 | 4462 ft | 210 kts | 218° |
| 2026-04-25 19:50 | 44.86172 | -63.22753 | 4269 ft | 204 kts | 219° |
| 2026-04-25 19:51 | 44.84983 | -63.23806 | 4090 ft | 202 kts | 220° |
| 2026-04-25 19:51 | 44.83824 | -63.24925 | 3907 ft | 198 kts | 223° |
| 2026-04-25 19:51 | 44.82718 | -63.26030 | 3745 ft | 193 kts | 223° |
| 2026-04-25 19:51 | 44.81617 | -63.27131 | 3570 ft | 195 kts | 224° |
| 2026-04-25 19:52 | 44.80497 | -63.28257 | 3387 ft | 198 kts | 224° |
| 2026-04-25 19:52 | 44.79539 | -63.29566 | 3146 ft | 185 kts | 257° |
| 2026-04-25 19:52 | 44.79504 | -63.31136 | 3063 ft | 150 kts | 306° |
| 2026-04-25 19:52 | 44.80007 | -63.32397 | 3026 ft | 147 kts | 311° |
| 2026-04-25 19:53 | 44.80529 | -63.33598 | 2997 ft | 140 kts | 313° |
| 2026-04-25 19:53 | 44.81045 | -63.34745 | 2911 ft | 139 kts | 313° |
| 2026-04-25 19:53 | 44.81554 | -63.35852 | 2612 ft | 130 kts | 314° |
| 2026-04-25 19:53 | 44.82057 | -63.36928 | 2453 ft | 132 kts | 314° |
| 2026-04-25 19:54 | 44.82540 | -63.37962 | 2290 ft | 123 kts | 315° |
| 2026-04-25 19:54 | 44.83024 | -63.38958 | 2145 ft | 125 kts | 314° |
| 2026-04-25 19:54 | 44.83501 | -63.39945 | 1997 ft | 114 kts | 314° |
| 2026-04-25 19:54 | 44.83777 | -63.40535 | 1892 ft | 102 kts | 316° |
| 2026-04-25 19:55 | 44.84310 | -63.41588 | 1761 ft | 100 kts | 317° |
| 2026-04-25 19:55 | 44.84736 | -63.42397 | 1686 ft | 107 kts | 317° |
| 2026-04-25 19:55 | 44.85169 | -63.43245 | 1527 ft | 104 kts | 316° |
| 2026-04-25 19:55 | 44.85580 | -63.44069 | 1365 ft | 102 kts | 315° |
| 2026-04-25 19:56 | 44.85989 | -63.44879 | 1266 ft | 101 kts | 316° |
| 2026-04-25 19:56 | 44.86418 | -63.45715 | 1111 ft | 107 kts | 314° |
| 2026-04-25 19:56 | 44.86813 | -63.46612 | 1022 ft | 109 kts | 315° |
| 2026-04-25 19:56 | 44.87246 | -63.47485 | 916 ft | 110 kts | 316° |
| 2026-04-25 19:57 | 44.87691 | -63.48385 | 745 ft | 113 kts | 313° |
| 2026-04-25 19:57 | 44.88132 | -63.49266 | 534 ft | 109 kts | 315° |
| 2026-04-25 19:57 | 44.88542 | -63.50074 | 476 ft | 86 kts | 306° |
| 2026-04-25 19:57 | 44.88772 | -63.50544 | 457 ft | 28 kts | 307° |
| 2026-04-25 19:58 | 44.88859 | -63.50719 | 453 ft | 12 kts | 301° |
| 2026-04-25 19:58 | 44.88843 | -63.50806 | 455 ft | 12 kts | 218° |
| 2026-04-25 19:58 | 44.88765 | -63.50885 | 457 ft | 14 kts | 216° |
| 2026-04-25 19:58 | 44.88716 | -63.51009 | 456 ft | 13 kts | 260° |
| 2026-04-25 19:59 | 44.88699 | -63.51148 | 456 ft | 15 kts | 261° |
| 2026-04-25 19:59 | 44.88674 | -63.51249 | 456 ft | 11 kts | 204° |
| 2026-04-25 19:59 | 44.88588 | -63.51238 | 456 ft | 8 kts | 171° |
| 2026-04-25 19:59 | 44.88549 | -63.51278 | 456 ft | 9 kts | 282° |
| 2026-04-25 20:00 | 44.88550 | -63.51346 | 455 ft | 4 kts | 270° |
| 2026-04-25 20:00 | 44.88550 | -63.51355 | 455 ft | 0 kts | 270° |